Time;durP1;ratioP1;P1;durP2;ratioP2;P2;SDS_P1;SDS_P2;PMS_P1;PMS_P2;Temp;Humidity;BMP_temperature;BMP_pressure;BME280_temperature;BME280_humidity;BME280_pressure;Samples;Min_cycle;Max_cycle;Signal;HPM_P1;HPM_P2
2024/01/14 00:05:36;;;;;;;3.90;2.67;;;;;;;;;;20970693;28;20221;-74
2024/01/14 00:15:37;;;;;;;3.87;2.33;;;;;;;;;;20968350;28;20222;-73
2024/01/14 00:25:40;;;;;;;3.93;3.20;;;;;;;;;;20938598;28;20245;-73
2024/01/14 00:35:42;;;;;;;4.27;1.97;;;;;;;;;;20957203;28;20221;-73
2024/01/14 00:45:43;;;;;;;4.10;3.20;;;;;;;;;;20973226;28;20208;-74
2024/01/14 00:55:45;;;;;;;5.30;2.97;;;;;;;;;;20960854;28;20217;-73
2024/01/14 01:05:47;;;;;;;5.00;3.17;;;;;;;;;;20920882;28;20272;-74
2024/01/14 01:15:49;;;;;;;4.23;2.80;;;;;;;;;;20943789;28;20256;-74
2024/01/14 01:25:51;;;;;;;4.17;3.03;;;;;;;;;;20954247;28;20214;-74
2024/01/14 01:35:54;;;;;;;4.07;2.83;;;;;;;;;;20953946;28;20696;-73
2024/01/14 01:45:56;;;;;;;6.03;3.50;;;;;;;;;;20933979;28;20213;-73
2024/01/14 01:55:58;;;;;;;5.00;3.37;;;;;;;;;;20954968;28;20221;-74
2024/01/14 02:06:01;;;;;;;4.90;2.70;;;-0.80;99.90;;;;;;20950058;28;20251;-74
2024/01/14 02:16:03;;;;;;;6.03;3.77;;;;;;;;;;20941592;28;20420;-72
2024/01/14 02:26:05;;;;;;;5.00;3.43;;;;;;;;;;20947888;28;20827;-74
2024/01/14 02:36:07;;;;;;;6.17;3.30;;;;;;;;;;20946825;28;20209;-74
2024/01/14 02:46:09;;;;;;;3.97;3.10;;;;;;;;;;20950168;28;20267;-73
2024/01/14 02:56:11;;;;;;;4.87;3.03;;;;;;;;;;20931293;28;20645;-73
2024/01/14 03:06:13;;;;;;;5.10;3.57;;;;;;;;;;20928537;28;20217;-73
2024/01/14 03:16:15;;;;;;;5.77;4.03;;;;;;;;;;20893626;28;20213;-73
2024/01/14 03:26:17;;;;;;;4.70;2.80;;;;;;;;;;20911740;28;20293;-73
2024/01/14 03:36:19;;;;;;;2.50;1.87;;;;;;;;;;20914179;28;20237;-73
2024/01/14 03:46:21;;;;;;;6.10;4.03;;;;;;;;;;20943470;28;20216;-73
2024/01/14 03:56:22;;;;;;;4.43;3.10;;;;;;;;;;20958844;28;20218;-73
2024/01/14 04:06:24;;;;;;;2.53;2.17;;;;;;;;;;20962010;28;20291;-73
2024/01/14 04:16:26;;;;;;;5.30;3.43;;;;;;;;;;20933676;28;20226;-74
2024/01/14 04:26:28;;;;;;;2.27;1.80;;;;;;;;;;20959244;28;20238;-73
2024/01/14 04:36:31;;;;;;;2.97;2.53;;;;;;;;;;20964996;28;20228;-73
2024/01/14 04:46:32;;;;;;;5.33;3.53;;;;;;;;;;20943698;28;20251;-73
2024/01/14 04:56:34;;;;;;;2.93;1.87;;;;;;;;;;20949392;28;20217;-74
2024/01/14 05:06:36;;;;;;;3.37;2.20;;;;;;;;;;20955540;28;20251;-73
2024/01/14 05:16:38;;;;;;;4.93;2.73;;;;;;;;;;20931273;28;20291;-73
2024/01/14 05:26:42;;;;;;;4.53;2.47;;;-1.20;99.90;;;;;;20932058;28;20603;-72
2024/01/14 05:36:44;;;;;;;5.60;3.13;;;;;;;;;;20930608;28;20287;-73
2024/01/14 05:46:46;;;;;;;4.23;2.33;;;;;;;;;;20963467;28;20217;-73
2024/01/14 05:56:48;;;;;;;3.67;2.77;;;;;;;;;;20948957;28;20282;-73
2024/01/14 06:06:49;;;;;;;3.40;2.00;;;;;;;;;;20942363;28;20700;-74
2024/01/14 06:16:51;;;;;;;1.60;1.33;;;;;;;;;;20950265;28;20217;-74
2024/01/14 06:26:55;;;;;;;3.90;2.50;;;;;;;;;;20948888;28;20310;-74
2024/01/14 06:36:58;;;;;;;2.57;1.97;;;;;;;;;;20960636;28;20236;-74
2024/01/14 06:47:00;;;;;;;4.50;2.83;;;;;;;;;;20949318;28;20217;-74
2024/01/14 06:57:02;;;;;;;4.50;2.97;;;;;;;;;;20948748;28;20216;-73
2024/01/14 07:07:04;;;;;;;3.77;2.80;;;;;;;;;;20935009;28;20650;-75
2024/01/14 07:17:07;;;;;;;3.07;2.50;;;;;;;;;;20942104;28;20743;-76
2024/01/14 07:27:09;;;;;;;3.20;2.90;;;;;;;;;;20929257;28;20278;-75
2024/01/14 07:37:11;;;;;;;3.27;2.47;;;;;;;;;;20936978;28;20632;-76
2024/01/14 07:47:13;;;;;;;2.37;2.10;;;;;;;;;;20898465;28;20221;-75
2024/01/14 07:57:14;;;;;;;2.13;1.77;;;;;;;;;;20882640;28;20269;-75
2024/01/14 08:07:17;;;;;;;4.67;2.00;;;;;;;;;;20906646;28;20213;-75
2024/01/14 08:17:19;;;;;;;1.93;1.67;;;;;;;;;;20909339;28;20583;-75
2024/01/14 08:27:21;;;;;;;4.00;2.37;;;;;;;;;;20909577;28;20240;-75
2024/01/14 08:37:26;;;;;;;2.57;2.10;;;;;;;;;;20909423;28;20218;-75
2024/01/14 08:47:27;;;;;;;2.87;2.13;;;;;;;;;;20885125;28;20684;-75
2024/01/14 08:57:30;;;;;;;3.57;2.67;;;;;;;;;;20909053;28;20626;-75
2024/01/14 09:07:33;;;;;;;0.53;0.50;;;;;;;;;;20906117;28;20685;-75
2024/01/14 09:17:35;;;;;;;2.20;1.93;;;;;;;;;;20901673;28;20659;-74
2024/01/14 09:27:37;;;;;;;0.60;0.60;;;;;;;;;;20886413;28;20264;-74
2024/01/14 09:37:39;;;;;;;1.30;1.20;;;;;;;;;;20905105;28;20295;-75
2024/01/14 09:47:42;;;;;;;3.13;2.60;;;-1.80;99.90;;;;;;20898988;28;20246;-75
2024/01/14 09:57:48;;;;;;;2.77;2.00;;;;;;;;;;20898726;28;20523;-75
2024/01/14 10:07:49;;;;;;;3.27;2.33;;;;;;;;;;20912660;28;20789;-75
2024/01/14 10:17:51;;;;;;;2.17;0.70;;;;;;;;;;20887716;28;20245;-75
2024/01/14 10:27:53;;;;;;;1.33;1.00;;;;;;;;;;20888337;28;20226;-75
2024/01/14 10:37:55;;;;;;;1.77;1.30;;;;;;;;;;20891004;28;20283;-75
2024/01/14 10:47:58;;;;;;;2.43;1.93;;;;;;;;;;20896124;28;20252;-75
2024/01/14 10:58:01;;;;;;;2.07;1.63;;;;;;;;;;20880145;28;20221;-74
2024/01/14 11:08:03;;;;;;;3.40;2.17;;;;;;;;;;20873407;28;20764;-75
2024/01/14 11:18:09;;;;;;;3.60;2.43;;;;;;;;;;20891398;28;20233;-75
2024/01/14 11:28:11;;;;;;;5.80;2.90;;;-0.30;99.90;;;;;;20872118;28;20795;-75
2024/01/14 11:38:32;;;;;;;13.47;2.87;;;-0.30;99.90;;;;;;20891990;28;20271;-75
2024/01/14 11:48:34;;;;;;;4.40;2.50;;;;;;;;;;20907703;28;20194;-74
2024/01/14 11:58:36;;;;;;;2.87;1.80;;;;;;;;;;20920012;28;20610;-74
2024/01/14 12:08:38;;;;;;;3.17;1.70;;;;;;;;;;20913441;28;20271;-74
2024/01/14 12:18:40;;;;;;;2.80;1.70;;;0.00;99.90;;;;;;20914288;28;20268;-74
2024/01/14 12:28:42;;;;;;;3.10;1.80;;;;;;;;;;20910314;28;20276;-75
2024/01/14 12:38:44;;;;;;;2.60;1.83;;;;;;;;;;20909459;28;20286;-74
2024/01/14 12:48:46;;;;;;;5.60;3.00;;;;;;;;;;20908326;28;20741;-74
2024/01/14 12:58:48;;;;;;;4.47;3.50;;;;;;;;;;20907617;28;20218;-75
2024/01/14 13:08:49;;;;;;;3.33;2.50;;;;;;;;;;20888905;28;20275;-75
2024/01/14 13:18:51;;;;;;;3.33;1.83;;;;;;;;;;20907087;28;20637;-74
2024/01/14 13:28:53;;;;;;;10.43;3.40;;;;;;;;;;20890684;28;20252;-75
2024/01/14 13:39:00;;;;;;;5.00;3.43;;;;;;;;;;20912110;28;20297;-74
2024/01/14 13:49:03;;;;;;;5.33;3.50;;;;;;;;;;20922101;28;20214;-74
2024/01/14 13:59:04;;;;;;;8.10;3.67;;;;;;;;;;20920917;28;20639;-75
2024/01/14 14:09:07;;;;;;;4.13;2.30;;;;;;;;;;20920166;28;20221;-74
2024/01/14 14:19:09;;;;;;;7.63;3.07;;;;;;;;;;20915563;28;20221;-74
2024/01/14 14:29:11;;;;;;;8.77;4.40;;;;;;;;;;20917737;28;20584;-74
2024/01/14 14:39:12;;;;;;;5.03;2.57;;;;;;;;;;20927513;28;20267;-75
2024/01/14 14:49:14;;;;;;;4.50;3.17;;;;;;;;;;20905538;28;20538;-75
2024/01/14 14:59:16;;;;;;;2.43;1.77;;;;;;;;;;20899780;28;20248;-77
2024/01/14 15:09:17;;;;;;;5.30;3.80;;;;;;;;;;20910779;28;20218;-75
2024/01/14 15:19:19;;;;;;;2.00;1.73;;;;;;;;;;20888449;28;20230;-76
2024/01/14 15:29:21;;;;;;;11.33;4.73;;;;;;;;;;20891438;28;20210;-75
2024/01/14 15:39:23;;;;;;;9.40;4.27;;;;;;;;;;20899473;28;20221;-75
2024/01/14 15:49:25;;;;;;;2.63;2.10;;;;;;;;;;20906103;28;20229;-75
2024/01/14 15:59:27;;;;;;;4.47;2.73;;;;;;;;;;20895598;28;20218;-76
2024/01/14 16:09:28;;;;;;;2.97;1.83;;;;;;;;;;20898289;28;20287;-75
2024/01/14 16:19:30;;;;;;;7.93;4.53;;;;;;;;;;20897059;28;20230;-76
2024/01/14 16:29:32;;;;;;;7.17;3.17;;;;;;;;;;20900861;28;20693;-74
2024/01/14 16:39:34;;;;;;;6.20;3.30;;;;;;;;;;20909300;28;20648;-75
2024/01/14 16:49:35;;;;;;;4.87;2.93;;;;;;;;;;20914500;28;20705;-74
2024/01/14 16:59:37;;;;;;;8.43;4.17;;;;;;;;;;20914598;28;20241;-75
2024/01/14 17:09:39;;;;;;;8.90;4.17;;;;;;;;;;20888489;28;20283;-75
2024/01/14 17:19:41;;;;;;;6.47;3.80;;;;;;;;;;20903989;28;20218;-76
2024/01/14 17:29:42;;;;;;;4.53;3.37;;;;;;;;;;20900133;28;20263;-76
2024/01/14 17:39:44;;;;;;;3.60;2.77;;;;;;;;;;20905902;28;20210;-75
2024/01/14 17:49:47;;;;;;;4.27;3.13;;;;;;;;;;20908247;28;20586;-74
2024/01/14 17:59:49;;;;;;;6.30;3.73;;;;;;;;;;20898065;28;20221;-75
2024/01/14 18:09:51;;;;;;;4.73;3.40;;;;;;;;;;20900123;28;20222;-75
2024/01/14 18:19:52;;;;;;;6.30;3.37;;;;;;;;;;20898524;28;20243;-75
2024/01/14 18:29:54;;;;;;;10.20;3.63;;;;;;;;;;20897735;28;20205;-76
2024/01/14 18:40:09;;;;;;;;;;;;;;;;;;;;;
2024/01/14 18:50:54;;;;;;;5.03;3.67;;;;;;;;;;20864017;28;20214;-75
2024/01/14 19:00:56;;;;;;;6.50;4.33;;;;;;;;;;20900253;28;20272;-75
2024/01/14 19:10:57;;;;;;;4.53;2.97;;;;;;;;;;20899432;28;20226;-75
2024/01/14 19:20:59;;;;;;;6.13;3.90;;;;;;;;;;20898857;28;20221;-75
2024/01/14 19:31:02;;;;;;;5.73;3.10;;;;;;;;;;20898933;28;20623;-75
2024/01/14 19:41:04;;;;;;;6.40;4.03;;;;;;;;;;20897986;28;20301;-76
2024/01/14 19:51:07;;;;;;;2.77;2.17;;;;;;;;;;20902665;28;20222;-76
2024/01/14 20:01:08;;;;;;;0.77;0.77;;;;;;;;;;20898487;28;20244;-75
2024/01/14 20:11:10;;;;;;;5.73;4.27;;;;;;;;;;20912656;28;20221;-75
2024/01/14 20:21:12;;;;;;;3.73;3.03;;;;;;;;;;20918561;28;20217;-77
2024/01/14 20:31:14;;;;;;;3.40;1.83;;;;;;;;;;20940481;28;20655;-75
2024/01/14 20:41:16;;;;;;;4.20;2.93;;;;;;;;;;20956989;28;20577;-76
2024/01/14 20:51:18;;;;;;;5.53;3.57;;;;;;;;;;20941986;28;20229;-75
2024/01/14 21:01:20;;;;;;;2.33;1.73;;;;;;;;;;20940810;28;20217;-76
2024/01/14 21:11:22;;;;;;;1.70;1.57;;;;;;;;;;20910805;28;20247;-76
2024/01/14 21:21:28;;;;;;;5.13;3.47;;;;;;;;;;20910004;28;20217;-76
2024/01/14 21:31:30;;;;;;;1.17;0.93;;;;;;;;;;20905311;28;20591;-76
2024/01/14 21:41:32;;;;;;;3.17;2.30;;;;;;;;;;20919058;28;20279;-76
2024/01/14 21:51:39;;;;;;;3.57;2.73;;;-1.80;99.90;;;;;;20919475;28;20209;-77
2024/01/14 22:01:41;;;;;;;3.93;2.53;;;;;;;;;;20932146;28;20247;-75
2024/01/14 22:11:43;;;;;;;4.30;2.20;;;;;;;;;;20921936;28;20237;-76
2024/01/14 22:21:44;;;;;;;1.60;1.50;;;;;;;;;;20904840;28;20561;-76
2024/01/14 22:31:46;;;;;;;3.30;2.20;;;;;;;;;;20912786;28;20299;-76
2024/01/14 22:41:48;;;;;;;3.90;2.30;;;;;;;;;;20917719;28;20210;-77
2024/01/14 22:51:50;;;;;;;1.47;1.23;;;;;;;;;;20923501;28;20271;-77
2024/01/14 23:01:51;;;;;;;1.23;1.13;;;;;;;;;;20893608;28;20271;-77
2024/01/14 23:11:53;;;;;;;2.03;1.43;;;;;;;;;;20920037;28;20226;-76
2024/01/14 23:21:55;;;;;;;3.83;2.00;;;;;;;;;;20919428;28;20218;-76
2024/01/14 23:31:56;;;;;;;1.63;1.07;;;;;;;;;;20941570;28;20695;-76
2024/01/14 23:41:58;;;;;;;3.10;1.70;;;;;;;;;;20916408;28;20217;-76
2024/01/14 23:52:00;;;;;;;2.93;1.93;;;;;;;;;;20928604;28;20570;-76
